sensor_id;sensor_type;location;lat;lon;timestamp;P1;durP1;ratioP1;P2;durP2;ratioP2
76127;SDS011;64873;50.102;14.434;2023-01-24T00:00:40;27.00;;;14.43;;
76127;SDS011;64873;50.102;14.434;2023-01-24T00:03:06;28.20;;;14.20;;
76127;SDS011;64873;50.102;14.434;2023-01-24T00:05:37;27.77;;;13.75;;
76127;SDS011;64873;50.102;14.434;2023-01-24T00:08:06;26.30;;;12.85;;
76127;SDS011;64873;50.102;14.434;2023-01-24T00:10:32;26.90;;;13.63;;
76127;SDS011;64873;50.102;14.434;2023-01-24T00:12:57;25.38;;;13.10;;
76127;SDS011;64873;50.102;14.434;2023-01-24T00:15:23;22.75;;;11.82;;
76127;SDS011;64873;50.102;14.434;2023-01-24T00:17:49;22.48;;;11.93;;
76127;SDS011;64873;50.102;14.434;2023-01-24T00:20:14;24.13;;;12.95;;
76127;SDS011;64873;50.102;14.434;2023-01-24T00:22:40;24.95;;;12.63;;
76127;SDS011;64873;50.102;14.434;2023-01-24T00:25:06;30.05;;;14.98;;
76127;SDS011;64873;50.102;14.434;2023-01-24T00:27:32;27.20;;;14.65;;
76127;SDS011;64873;50.102;14.434;2023-01-24T00:29:59;27.50;;;13.27;;
76127;SDS011;64873;50.102;14.434;2023-01-24T00:32:27;35.20;;;17.35;;
76127;SDS011;64873;50.102;14.434;2023-01-24T00:34:53;33.35;;;14.55;;
76127;SDS011;64873;50.102;14.434;2023-01-24T00:37:18;27.95;;;13.82;;
76127;SDS011;64873;50.102;14.434;2023-01-24T00:39:43;29.83;;;14.23;;
76127;SDS011;64873;50.102;14.434;2023-01-24T00:42:09;26.95;;;14.15;;
76127;SDS011;64873;50.102;14.434;2023-01-24T00:44:34;26.60;;;12.93;;
76127;SDS011;64873;50.102;14.434;2023-01-24T00:47:00;30.42;;;14.93;;
76127;SDS011;64873;50.102;14.434;2023-01-24T00:49:25;23.67;;;12.57;;
76127;SDS011;64873;50.102;14.434;2023-01-24T00:51:50;28.75;;;13.57;;
76127;SDS011;64873;50.102;14.434;2023-01-24T00:54:16;29.95;;;14.82;;
76127;SDS011;64873;50.102;14.434;2023-01-24T00:56:41;26.25;;;10.95;;
76127;SDS011;64873;50.102;14.434;2023-01-24T00:59:07;26.17;;;12.73;;
76127;SDS011;64873;50.102;14.434;2023-01-24T01:01:33;30.52;;;14.82;;
76127;SDS011;64873;50.102;14.434;2023-01-24T01:03:58;23.88;;;11.43;;
76127;SDS011;64873;50.102;14.434;2023-01-24T01:06:24;22.40;;;10.95;;
76127;SDS011;64873;50.102;14.434;2023-01-24T01:08:50;26.45;;;13.40;;
76127;SDS011;64873;50.102;14.434;2023-01-24T01:11:16;26.58;;;13.20;;
76127;SDS011;64873;50.102;14.434;2023-01-24T01:13:41;21.95;;;11.63;;
76127;SDS011;64873;50.102;14.434;2023-01-24T01:16:09;29.20;;;13.32;;
76127;SDS011;64873;50.102;14.434;2023-01-24T01:18:37;24.73;;;12.40;;
76127;SDS011;64873;50.102;14.434;2023-01-24T01:21:03;21.90;;;8.98;;
76127;SDS011;64873;50.102;14.434;2023-01-24T01:23:30;25.25;;;11.13;;
76127;SDS011;64873;50.102;14.434;2023-01-24T01:26:02;24.00;;;11.02;;
76127;SDS011;64873;50.102;14.434;2023-01-24T01:28:29;29.67;;;13.30;;
76127;SDS011;64873;50.102;14.434;2023-01-24T01:30:55;25.85;;;12.43;;
76127;SDS011;64873;50.102;14.434;2023-01-24T01:33:21;27.05;;;13.25;;
76127;SDS011;64873;50.102;14.434;2023-01-24T01:35:48;28.52;;;13.43;;
76127;SDS011;64873;50.102;14.434;2023-01-24T01:38:14;27.52;;;13.05;;
76127;SDS011;64873;50.102;14.434;2023-01-24T01:40:40;25.10;;;12.20;;
76127;SDS011;64873;50.102;14.434;2023-01-24T01:43:10;32.17;;;14.95;;
76127;SDS011;64873;50.102;14.434;2023-01-24T01:48:13;25.42;;;12.05;;
76127;SDS011;64873;50.102;14.434;2023-01-24T01:50:45;25.73;;;11.68;;
76127;SDS011;64873;50.102;14.434;2023-01-24T01:53:15;29.63;;;13.95;;
76127;SDS011;64873;50.102;14.434;2023-01-24T01:55:43;32.17;;;14.00;;
76127;SDS011;64873;50.102;14.434;2023-01-24T01:58:14;31.52;;;14.77;;
76127;SDS011;64873;50.102;14.434;2023-01-24T02:00:42;30.70;;;15.90;;
76127;SDS011;64873;50.102;14.434;2023-01-24T02:03:14;31.08;;;14.07;;
76127;SDS011;64873;50.102;14.434;2023-01-24T02:06:01;26.65;;;13.57;;
76127;SDS011;64873;50.102;14.434;2023-01-24T02:08:27;28.45;;;14.45;;
76127;SDS011;64873;50.102;14.434;2023-01-24T02:10:53;27.60;;;14.20;;
76127;SDS011;64873;50.102;14.434;2023-01-24T02:13:41;26.65;;;13.60;;
76127;SDS011;64873;50.102;14.434;2023-01-24T02:16:09;32.42;;;15.63;;
76127;SDS011;64873;50.102;14.434;2023-01-24T02:18:36;31.20;;;14.55;;
76127;SDS011;64873;50.102;14.434;2023-01-24T02:21:03;25.52;;;13.48;;
76127;SDS011;64873;50.102;14.434;2023-01-24T02:26:21;29.00;;;15.10;;
76127;SDS011;64873;50.102;14.434;2023-01-24T02:28:56;31.35;;;14.52;;
76127;SDS011;64873;50.102;14.434;2023-01-24T02:31:22;28.85;;;13.45;;
76127;SDS011;64873;50.102;14.434;2023-01-24T02:33:49;28.40;;;13.45;;
76127;SDS011;64873;50.102;14.434;2023-01-24T02:39:03;31.45;;;14.93;;
76127;SDS011;64873;50.102;14.434;2023-01-24T02:41:36;29.98;;;14.82;;
76127;SDS011;64873;50.102;14.434;2023-01-24T02:44:09;30.95;;;15.00;;
76127;SDS011;64873;50.102;14.434;2023-01-24T02:46:37;30.00;;;12.50;;
76127;SDS011;64873;50.102;14.434;2023-01-24T02:49:06;32.08;;;13.93;;
76127;SDS011;64873;50.102;14.434;2023-01-24T02:51:32;30.98;;;14.10;;
76127;SDS011;64873;50.102;14.434;2023-01-24T02:54:16;28.83;;;14.25;;
76127;SDS011;64873;50.102;14.434;2023-01-24T02:56:42;32.75;;;15.85;;
76127;SDS011;64873;50.102;14.434;2023-01-24T02:59:26;26.55;;;13.13;;
76127;SDS011;64873;50.102;14.434;2023-01-24T03:01:51;29.60;;;13.95;;
76127;SDS011;64873;50.102;14.434;2023-01-24T03:04:17;36.83;;;17.13;;
76127;SDS011;64873;50.102;14.434;2023-01-24T03:06:42;33.20;;;15.43;;
76127;SDS011;64873;50.102;14.434;2023-01-24T03:09:08;35.35;;;17.42;;
76127;SDS011;64873;50.102;14.434;2023-01-24T03:11:45;28.27;;;13.15;;
76127;SDS011;64873;50.102;14.434;2023-01-24T03:14:12;27.05;;;11.75;;
76127;SDS011;64873;50.102;14.434;2023-01-24T03:16:57;31.70;;;14.90;;
76127;SDS011;64873;50.102;14.434;2023-01-24T03:19:40;29.48;;;14.73;;
76127;SDS011;64873;50.102;14.434;2023-01-24T03:22:24;31.05;;;14.85;;
76127;SDS011;64873;50.102;14.434;2023-01-24T03:25:08;30.75;;;13.95;;
76127;SDS011;64873;50.102;14.434;2023-01-24T03:27:52;30.02;;;13.65;;
76127;SDS011;64873;50.102;14.434;2023-01-24T03:30:36;33.05;;;14.85;;
76127;SDS011;64873;50.102;14.434;2023-01-24T03:33:20;31.35;;;13.80;;
76127;SDS011;64873;50.102;14.434;2023-01-24T03:36:04;26.60;;;11.07;;
76127;SDS011;64873;50.102;14.434;2023-01-24T03:38:31;32.08;;;12.73;;
76127;SDS011;64873;50.102;14.434;2023-01-24T03:41:15;31.23;;;14.50;;
76127;SDS011;64873;50.102;14.434;2023-01-24T03:43:41;29.98;;;13.60;;
76127;SDS011;64873;50.102;14.434;2023-01-24T03:46:08;26.83;;;12.98;;
76127;SDS011;64873;50.102;14.434;2023-01-24T03:48:33;31.55;;;12.32;;
76127;SDS011;64873;50.102;14.434;2023-01-24T03:51:02;30.17;;;14.25;;
76127;SDS011;64873;50.102;14.434;2023-01-24T03:53:47;30.38;;;12.20;;
76127;SDS011;64873;50.102;14.434;2023-01-24T03:56:13;29.67;;;12.95;;
76127;SDS011;64873;50.102;14.434;2023-01-24T03:58:38;28.73;;;12.98;;
76127;SDS011;64873;50.102;14.434;2023-01-24T04:01:04;27.80;;;12.88;;
76127;SDS011;64873;50.102;14.434;2023-01-24T04:03:30;29.55;;;14.10;;
76127;SDS011;64873;50.102;14.434;2023-01-24T04:05:57;25.23;;;11.32;;
76127;SDS011;64873;50.102;14.434;2023-01-24T04:08:23;27.40;;;12.13;;
76127;SDS011;64873;50.102;14.434;2023-01-24T04:10:49;25.30;;;10.63;;
76127;SDS011;64873;50.102;14.434;2023-01-24T04:13:14;25.30;;;11.30;;
76127;SDS011;64873;50.102;14.434;2023-01-24T04:15:41;23.73;;;9.93;;
76127;SDS011;64873;50.102;14.434;2023-01-24T04:18:07;28.05;;;13.25;;
76127;SDS011;64873;50.102;14.434;2023-01-24T04:20:34;33.53;;;14.75;;
76127;SDS011;64873;50.102;14.434;2023-01-24T04:23:01;32.22;;;14.10;;
76127;SDS011;64873;50.102;14.434;2023-01-24T04:25:28;24.15;;;11.25;;
76127;SDS011;64873;50.102;14.434;2023-01-24T04:27:54;27.13;;;12.18;;
76127;SDS011;64873;50.102;14.434;2023-01-24T04:30:20;26.88;;;12.73;;
76127;SDS011;64873;50.102;14.434;2023-01-24T04:32:46;28.63;;;13.35;;
76127;SDS011;64873;50.102;14.434;2023-01-24T04:35:15;32.28;;;14.18;;
76127;SDS011;64873;50.102;14.434;2023-01-24T04:37:42;30.23;;;13.82;;
76127;SDS011;64873;50.102;14.434;2023-01-24T04:40:07;30.30;;;13.98;;
76127;SDS011;64873;50.102;14.434;2023-01-24T04:42:33;31.63;;;13.13;;
76127;SDS011;64873;50.102;14.434;2023-01-24T04:44:59;28.90;;;13.52;;
76127;SDS011;64873;50.102;14.434;2023-01-24T04:47:29;29.92;;;13.25;;
76127;SDS011;64873;50.102;14.434;2023-01-24T04:49:58;29.38;;;12.90;;
76127;SDS011;64873;50.102;14.434;2023-01-24T04:52:24;28.13;;;12.30;;
76127;SDS011;64873;50.102;14.434;2023-01-24T04:54:49;27.67;;;13.27;;
76127;SDS011;64873;50.102;14.434;2023-01-24T04:57:16;23.92;;;10.95;;
76127;SDS011;64873;50.102;14.434;2023-01-24T04:59:42;24.05;;;11.57;;
76127;SDS011;64873;50.102;14.434;2023-01-24T05:02:07;26.58;;;12.07;;
76127;SDS011;64873;50.102;14.434;2023-01-24T05:04:33;28.75;;;13.30;;
76127;SDS011;64873;50.102;14.434;2023-01-24T05:06:58;26.10;;;11.70;;
76127;SDS011;64873;50.102;14.434;2023-01-24T05:09:23;24.52;;;11.73;;
76127;SDS011;64873;50.102;14.434;2023-01-24T05:11:49;20.15;;;9.90;;
76127;SDS011;64873;50.102;14.434;2023-01-24T05:14:15;25.88;;;12.80;;
76127;SDS011;64873;50.102;14.434;2023-01-24T05:16:40;29.08;;;13.10;;
76127;SDS011;64873;50.102;14.434;2023-01-24T05:19:05;33.95;;;14.48;;
76127;SDS011;64873;50.102;14.434;2023-01-24T05:21:31;31.42;;;14.50;;
76127;SDS011;64873;50.102;14.434;2023-01-24T05:23:57;29.45;;;13.50;;
76127;SDS011;64873;50.102;14.434;2023-01-24T05:26:23;24.08;;;9.43;;
76127;SDS011;64873;50.102;14.434;2023-01-24T05:28:50;21.02;;;9.18;;
76127;SDS011;64873;50.102;14.434;2023-01-24T05:31:16;31.15;;;14.52;;
76127;SDS011;64873;50.102;14.434;2023-01-24T05:33:42;31.50;;;13.75;;
76127;SDS011;64873;50.102;14.434;2023-01-24T05:36:10;29.63;;;14.18;;
76127;SDS011;64873;50.102;14.434;2023-01-24T05:38:45;30.52;;;14.15;;
76127;SDS011;64873;50.102;14.434;2023-01-24T05:41:12;33.88;;;15.27;;
76127;SDS011;64873;50.102;14.434;2023-01-24T05:43:41;32.70;;;14.27;;
76127;SDS011;64873;50.102;14.434;2023-01-24T05:46:11;21.48;;;9.48;;
76127;SDS011;64873;50.102;14.434;2023-01-24T05:48:40;20.70;;;9.18;;
76127;SDS011;64873;50.102;14.434;2023-01-24T05:51:08;18.65;;;8.48;;
76127;SDS011;64873;50.102;14.434;2023-01-24T05:53:35;26.70;;;12.77;;
76127;SDS011;64873;50.102;14.434;2023-01-24T05:56:06;28.40;;;13.45;;
76127;SDS011;64873;50.102;14.434;2023-01-24T05:58:38;17.63;;;8.18;;
76127;SDS011;64873;50.102;14.434;2023-01-24T06:01:11;18.48;;;9.35;;
76127;SDS011;64873;50.102;14.434;2023-01-24T06:03:41;19.50;;;8.68;;
76127;SDS011;64873;50.102;14.434;2023-01-24T06:06:08;17.80;;;9.05;;
76127;SDS011;64873;50.102;14.434;2023-01-24T06:08:34;20.63;;;10.57;;
76127;SDS011;64873;50.102;14.434;2023-01-24T06:13:53;27.10;;;12.65;;
76127;SDS011;64873;50.102;14.434;2023-01-24T06:16:21;17.92;;;7.15;;
76127;SDS011;64873;50.102;14.434;2023-01-24T06:18:49;33.05;;;14.68;;
76127;SDS011;64873;50.102;14.434;2023-01-24T06:24:04;31.70;;;13.00;;
76127;SDS011;64873;50.102;14.434;2023-01-24T06:26:30;29.70;;;13.85;;
76127;SDS011;64873;50.102;14.434;2023-01-24T06:28:57;33.42;;;14.27;;
76127;SDS011;64873;50.102;14.434;2023-01-24T06:39:28;28.25;;;12.57;;
76127;SDS011;64873;50.102;14.434;2023-01-24T06:41:54;25.20;;;11.82;;
76127;SDS011;64873;50.102;14.434;2023-01-24T06:44:19;27.45;;;11.38;;
76127;SDS011;64873;50.102;14.434;2023-01-24T06:46:45;24.08;;;11.15;;
76127;SDS011;64873;50.102;14.434;2023-01-24T06:49:11;19.65;;;8.90;;
76127;SDS011;64873;50.102;14.434;2023-01-24T06:51:36;20.95;;;9.35;;
76127;SDS011;64873;50.102;14.434;2023-01-24T06:54:02;18.27;;;9.05;;
76127;SDS011;64873;50.102;14.434;2023-01-24T06:56:27;23.23;;;10.95;;
76127;SDS011;64873;50.102;14.434;2023-01-24T06:58:53;28.98;;;12.05;;
76127;SDS011;64873;50.102;14.434;2023-01-24T07:01:18;26.48;;;11.05;;
76127;SDS011;64873;50.102;14.434;2023-01-24T07:03:43;14.93;;;7.75;;
76127;SDS011;64873;50.102;14.434;2023-01-24T07:06:09;26.27;;;12.38;;
76127;SDS011;64873;50.102;14.434;2023-01-24T07:08:34;23.10;;;11.85;;
76127;SDS011;64873;50.102;14.434;2023-01-24T07:11:00;24.67;;;11.82;;
76127;SDS011;64873;50.102;14.434;2023-01-24T07:13:25;30.23;;;13.57;;
76127;SDS011;64873;50.102;14.434;2023-01-24T07:15:51;19.88;;;9.90;;
76127;SDS011;64873;50.102;14.434;2023-01-24T07:18:17;31.20;;;14.70;;
76127;SDS011;64873;50.102;14.434;2023-01-24T07:20:43;29.92;;;13.80;;
76127;SDS011;64873;50.102;14.434;2023-01-24T07:23:18;24.08;;;10.82;;
76127;SDS011;64873;50.102;14.434;2023-01-24T07:25:45;25.20;;;12.27;;
76127;SDS011;64873;50.102;14.434;2023-01-24T07:28:11;15.10;;;7.47;;
76127;SDS011;64873;50.102;14.434;2023-01-24T07:30:37;27.08;;;12.23;;
76127;SDS011;64873;50.102;14.434;2023-01-24T07:33:02;28.02;;;11.02;;
76127;SDS011;64873;50.102;14.434;2023-01-24T07:35:28;23.15;;;10.52;;
76127;SDS011;64873;50.102;14.434;2023-01-24T07:37:54;24.45;;;11.60;;
76127;SDS011;64873;50.102;14.434;2023-01-24T07:40:20;10.40;;;5.00;;
76127;SDS011;64873;50.102;14.434;2023-01-24T07:42:45;32.13;;;13.45;;
76127;SDS011;64873;50.102;14.434;2023-01-24T07:45:10;27.15;;;13.00;;
76127;SDS011;64873;50.102;14.434;2023-01-24T07:47:36;22.35;;;11.25;;
76127;SDS011;64873;50.102;14.434;2023-01-24T07:50:01;18.58;;;8.40;;
76127;SDS011;64873;50.102;14.434;2023-01-24T07:52:27;27.48;;;9.60;;
76127;SDS011;64873;50.102;14.434;2023-01-24T07:54:52;21.25;;;10.10;;
76127;SDS011;64873;50.102;14.434;2023-01-24T07:57:18;28.98;;;11.43;;
76127;SDS011;64873;50.102;14.434;2023-01-24T07:59:43;23.13;;;11.55;;
76127;SDS011;64873;50.102;14.434;2023-01-24T08:02:09;27.52;;;13.00;;
76127;SDS011;64873;50.102;14.434;2023-01-24T08:04:36;27.33;;;12.75;;
76127;SDS011;64873;50.102;14.434;2023-01-24T08:07:02;21.13;;;9.32;;
76127;SDS011;64873;50.102;14.434;2023-01-24T08:09:43;28.98;;;12.23;;
76127;SDS011;64873;50.102;14.434;2023-01-24T08:12:09;24.40;;;12.95;;
76127;SDS011;64873;50.102;14.434;2023-01-24T08:14:34;28.33;;;13.60;;
76127;SDS011;64873;50.102;14.434;2023-01-24T08:17:00;30.05;;;13.43;;
76127;SDS011;64873;50.102;14.434;2023-01-24T08:19:25;29.75;;;13.02;;
76127;SDS011;64873;50.102;14.434;2023-01-24T08:21:51;19.08;;;9.60;;
76127;SDS011;64873;50.102;14.434;2023-01-24T08:24:16;21.55;;;11.52;;
76127;SDS011;64873;50.102;14.434;2023-01-24T08:26:41;27.17;;;13.07;;
76127;SDS011;64873;50.102;14.434;2023-01-24T08:29:11;30.10;;;12.45;;
76127;SDS011;64873;50.102;14.434;2023-01-24T08:31:37;23.50;;;11.63;;
76127;SDS011;64873;50.102;14.434;2023-01-24T08:34:02;29.38;;;13.45;;
76127;SDS011;64873;50.102;14.434;2023-01-24T08:36:28;25.33;;;12.98;;
76127;SDS011;64873;50.102;14.434;2023-01-24T08:38:53;30.40;;;14.15;;
76127;SDS011;64873;50.102;14.434;2023-01-24T08:41:18;29.02;;;13.40;;
76127;SDS011;64873;50.102;14.434;2023-01-24T08:43:44;27.75;;;12.98;;
76127;SDS011;64873;50.102;14.434;2023-01-24T08:46:09;26.40;;;13.07;;
76127;SDS011;64873;50.102;14.434;2023-01-24T08:48:35;26.08;;;13.00;;
76127;SDS011;64873;50.102;14.434;2023-01-24T08:51:03;28.10;;;12.95;;
76127;SDS011;64873;50.102;14.434;2023-01-24T08:53:29;28.33;;;13.32;;
76127;SDS011;64873;50.102;14.434;2023-01-24T08:55:54;30.80;;;16.10;;
76127;SDS011;64873;50.102;14.434;2023-01-24T08:58:20;27.45;;;12.52;;
76127;SDS011;64873;50.102;14.434;2023-01-24T09:00:46;27.33;;;12.27;;
76127;SDS011;64873;50.102;14.434;2023-01-24T09:03:12;31.60;;;14.52;;
76127;SDS011;64873;50.102;14.434;2023-01-24T09:05:41;30.05;;;14.00;;
76127;SDS011;64873;50.102;14.434;2023-01-24T09:08:07;24.95;;;12.10;;
76127;SDS011;64873;50.102;14.434;2023-01-24T09:10:32;30.80;;;13.65;;
76127;SDS011;64873;50.102;14.434;2023-01-24T09:12:58;29.70;;;13.85;;
76127;SDS011;64873;50.102;14.434;2023-01-24T09:15:25;27.92;;;14.30;;
76127;SDS011;64873;50.102;14.434;2023-01-24T09:17:50;24.45;;;11.45;;
76127;SDS011;64873;50.102;14.434;2023-01-24T09:20:16;28.50;;;12.77;;
76127;SDS011;64873;50.102;14.434;2023-01-24T09:22:42;29.33;;;14.15;;
76127;SDS011;64873;50.102;14.434;2023-01-24T09:25:07;25.88;;;13.18;;
76127;SDS011;64873;50.102;14.434;2023-01-24T09:27:33;26.63;;;13.48;;
76127;SDS011;64873;50.102;14.434;2023-01-24T09:29:59;28.58;;;12.57;;
76127;SDS011;64873;50.102;14.434;2023-01-24T09:32:25;29.13;;;13.68;;
76127;SDS011;64873;50.102;14.434;2023-01-24T09:34:50;27.13;;;12.55;;
76127;SDS011;64873;50.102;14.434;2023-01-24T09:37:17;22.17;;;11.00;;
76127;SDS011;64873;50.102;14.434;2023-01-24T09:39:43;23.52;;;12.20;;
76127;SDS011;64873;50.102;14.434;2023-01-24T09:44:36;23.13;;;10.27;;
76127;SDS011;64873;50.102;14.434;2023-01-24T09:47:26;22.15;;;10.23;;
76127;SDS011;64873;50.102;14.434;2023-01-24T09:52:45;26.83;;;12.05;;
76127;SDS011;64873;50.102;14.434;2023-01-24T09:55:23;22.75;;;10.85;;
76127;SDS011;64873;50.102;14.434;2023-01-24T09:57:56;33.53;;;13.50;;
76127;SDS011;64873;50.102;14.434;2023-01-24T10:00:29;34.25;;;12.68;;
76127;SDS011;64873;50.102;14.434;2023-01-24T10:02:58;11.20;;;5.90;;
76127;SDS011;64873;50.102;14.434;2023-01-24T10:05:28;28.05;;;13.38;;
76127;SDS011;64873;50.102;14.434;2023-01-24T10:08:02;24.65;;;11.23;;
76127;SDS011;64873;50.102;14.434;2023-01-24T10:10:34;25.27;;;12.32;;
76127;SDS011;64873;50.102;14.434;2023-01-24T10:18:46;23.50;;;11.07;;
76127;SDS011;64873;50.102;14.434;2023-01-24T10:23:57;34.92;;;11.75;;
76127;SDS011;64873;50.102;14.434;2023-01-24T10:29:25;24.73;;;11.02;;
76127;SDS011;64873;50.102;14.434;2023-01-24T10:34:32;24.15;;;12.13;;
76127;SDS011;64873;50.102;14.434;2023-01-24T10:37:05;21.55;;;11.35;;
76127;SDS011;64873;50.102;14.434;2023-01-24T10:39:39;26.05;;;13.35;;
76127;SDS011;64873;50.102;14.434;2023-01-24T10:42:18;24.38;;;11.98;;
76127;SDS011;64873;50.102;14.434;2023-01-24T10:44:47;27.13;;;12.13;;
76127;SDS011;64873;50.102;14.434;2023-01-24T10:50:06;26.83;;;12.02;;
76127;SDS011;64873;50.102;14.434;2023-01-24T10:52:33;18.30;;;7.93;;
76127;SDS011;64873;50.102;14.434;2023-01-24T10:55:00;24.67;;;12.23;;
76127;SDS011;64873;50.102;14.434;2023-01-24T11:00:27;27.92;;;12.95;;
76127;SDS011;64873;50.102;14.434;2023-01-24T11:03:04;27.55;;;11.80;;
76127;SDS011;64873;50.102;14.434;2023-01-24T11:05:52;19.52;;;9.85;;
76127;SDS011;64873;50.102;14.434;2023-01-24T11:08:20;24.95;;;9.80;;
76127;SDS011;64873;50.102;14.434;2023-01-24T11:10:54;24.70;;;13.10;;
76127;SDS011;64873;50.102;14.434;2023-01-24T11:13:28;22.08;;;10.90;;
76127;SDS011;64873;50.102;14.434;2023-01-24T11:18:51;20.65;;;9.23;;
76127;SDS011;64873;50.102;14.434;2023-01-24T11:21:25;13.68;;;7.10;;
76127;SDS011;64873;50.102;14.434;2023-01-24T11:23:59;22.65;;;9.65;;
76127;SDS011;64873;50.102;14.434;2023-01-24T11:28:56;25.25;;;12.95;;
76127;SDS011;64873;50.102;14.434;2023-01-24T11:31:27;18.70;;;8.60;;
76127;SDS011;64873;50.102;14.434;2023-01-24T11:42:37;31.50;;;12.52;;
76127;SDS011;64873;50.102;14.434;2023-01-24T11:48:05;27.52;;;12.05;;
76127;SDS011;64873;50.102;14.434;2023-01-24T12:05:51;27.55;;;12.52;;
76127;SDS011;64873;50.102;14.434;2023-01-24T12:22:17;26.60;;;13.70;;
76127;SDS011;64873;50.102;14.434;2023-01-24T12:24:48;35.35;;;14.00;;
76127;SDS011;64873;50.102;14.434;2023-01-24T12:27:20;32.67;;;14.45;;
76127;SDS011;64873;50.102;14.434;2023-01-24T12:29:59;32.90;;;14.25;;
76127;SDS011;64873;50.102;14.434;2023-01-24T12:40:39;22.23;;;12.32;;
76127;SDS011;64873;50.102;14.434;2023-01-24T12:46:06;25.63;;;12.82;;
76127;SDS011;64873;50.102;14.434;2023-01-24T12:48:50;26.65;;;11.30;;
76127;SDS011;64873;50.102;14.434;2023-01-24T12:51:22;22.40;;;10.82;;
76127;SDS011;64873;50.102;14.434;2023-01-24T12:56:40;23.55;;;11.90;;
76127;SDS011;64873;50.102;14.434;2023-01-24T12:59:08;21.42;;;11.02;;
76127;SDS011;64873;50.102;14.434;2023-01-24T13:01:48;28.70;;;14.35;;
76127;SDS011;64873;50.102;14.434;2023-01-24T13:04:52;26.80;;;12.93;;
76127;SDS011;64873;50.102;14.434;2023-01-24T13:12:32;29.90;;;15.25;;
76127;SDS011;64873;50.102;14.434;2023-01-24T13:14:59;29.30;;;13.77;;
76127;SDS011;64873;50.102;14.434;2023-01-24T13:29:24;25.20;;;11.23;;
76127;SDS011;64873;50.102;14.434;2023-01-24T13:32:10;33.30;;;15.27;;
76127;SDS011;64873;50.102;14.434;2023-01-24T13:34:54;32.72;;;13.43;;
76127;SDS011;64873;50.102;14.434;2023-01-24T13:39:59;28.58;;;12.93;;
76127;SDS011;64873;50.102;14.434;2023-01-24T13:45:40;37.75;;;18.60;;
76127;SDS011;64873;50.102;14.434;2023-01-24T13:47:46;33.88;;;17.33;;
76127;SDS011;64873;50.102;14.434;2023-01-24T13:50:12;34.80;;;16.50;;
76127;SDS011;64873;50.102;14.434;2023-01-24T13:52:43;38.28;;;16.90;;
76127;SDS011;64873;50.102;14.434;2023-01-24T13:57:48;44.28;;;19.63;;
76127;SDS011;64873;50.102;14.434;2023-01-24T14:13:41;39.92;;;18.55;;
76127;SDS011;64873;50.102;14.434;2023-01-24T14:16:11;40.97;;;17.25;;
76127;SDS011;64873;50.102;14.434;2023-01-24T14:21:13;35.00;;;16.98;;
76127;SDS011;64873;50.102;14.434;2023-01-24T14:23:46;42.53;;;18.70;;
76127;SDS011;64873;50.102;14.434;2023-01-24T14:26:15;42.00;;;18.08;;
76127;SDS011;64873;50.102;14.434;2023-01-24T14:28:45;37.45;;;16.65;;
76127;SDS011;64873;50.102;14.434;2023-01-24T14:31:21;39.95;;;19.70;;
76127;SDS011;64873;50.102;14.434;2023-01-24T14:36:40;36.03;;;16.30;;
76127;SDS011;64873;50.102;14.434;2023-01-24T14:39:19;33.58;;;15.65;;
76127;SDS011;64873;50.102;14.434;2023-01-24T14:41:47;30.48;;;14.68;;
76127;SDS011;64873;50.102;14.434;2023-01-24T14:44:27;40.03;;;17.50;;
76127;SDS011;64873;50.102;14.434;2023-01-24T14:47:01;33.55;;;16.85;;
76127;SDS011;64873;50.102;14.434;2023-01-24T14:49:50;35.88;;;17.83;;
76127;SDS011;64873;50.102;14.434;2023-01-24T14:52:22;37.10;;;16.50;;
76127;SDS011;64873;50.102;14.434;2023-01-24T14:59:57;40.38;;;17.70;;
76127;SDS011;64873;50.102;14.434;2023-01-24T15:02:40;37.58;;;16.20;;
76127;SDS011;64873;50.102;14.434;2023-01-24T15:07:52;33.28;;;15.52;;
76127;SDS011;64873;50.102;14.434;2023-01-24T15:10:26;36.85;;;15.85;;
76127;SDS011;64873;50.102;14.434;2023-01-24T15:13:05;31.60;;;13.75;;
76127;SDS011;64873;50.102;14.434;2023-01-24T15:15:33;32.88;;;16.77;;
76127;SDS011;64873;50.102;14.434;2023-01-24T15:18:00;30.67;;;15.10;;
76127;SDS011;64873;50.102;14.434;2023-01-24T15:20:46;33.53;;;15.50;;
76127;SDS011;64873;50.102;14.434;2023-01-24T15:23:13;37.17;;;15.70;;
76127;SDS011;64873;50.102;14.434;2023-01-24T15:25:44;32.30;;;14.37;;
76127;SDS011;64873;50.102;14.434;2023-01-24T15:28:16;29.75;;;14.10;;
76127;SDS011;64873;50.102;14.434;2023-01-24T15:30:51;37.22;;;16.55;;
76127;SDS011;64873;50.102;14.434;2023-01-24T15:33:18;35.45;;;16.10;;
76127;SDS011;64873;50.102;14.434;2023-01-24T15:38:19;36.42;;;16.45;;
76127;SDS011;64873;50.102;14.434;2023-01-24T15:46:20;33.33;;;16.35;;
76127;SDS011;64873;50.102;14.434;2023-01-24T15:51:57;24.88;;;11.52;;
76127;SDS011;64873;50.102;14.434;2023-01-24T15:54:31;31.10;;;13.02;;
76127;SDS011;64873;50.102;14.434;2023-01-24T15:56:57;35.35;;;16.63;;
76127;SDS011;64873;50.102;14.434;2023-01-24T15:59:25;39.80;;;17.92;;
76127;SDS011;64873;50.102;14.434;2023-01-24T16:01:52;30.25;;;12.52;;
76127;SDS011;64873;50.102;14.434;2023-01-24T16:04:18;30.42;;;13.65;;
76127;SDS011;64873;50.102;14.434;2023-01-24T16:06:45;34.58;;;15.23;;
76127;SDS011;64873;50.102;14.434;2023-01-24T16:09:11;37.58;;;15.32;;
76127;SDS011;64873;50.102;14.434;2023-01-24T16:11:37;36.17;;;17.25;;
76127;SDS011;64873;50.102;14.434;2023-01-24T16:14:05;37.63;;;18.15;;
76127;SDS011;64873;50.102;14.434;2023-01-24T16:16:33;34.83;;;16.02;;
76127;SDS011;64873;50.102;14.434;2023-01-24T16:18:59;35.38;;;16.00;;
76127;SDS011;64873;50.102;14.434;2023-01-24T16:21:25;35.88;;;16.50;;
76127;SDS011;64873;50.102;14.434;2023-01-24T16:23:51;36.08;;;16.58;;
76127;SDS011;64873;50.102;14.434;2023-01-24T16:26:23;31.75;;;13.63;;
76127;SDS011;64873;50.102;14.434;2023-01-24T16:28:50;36.33;;;15.20;;
76127;SDS011;64873;50.102;14.434;2023-01-24T16:31:15;33.30;;;14.10;;
76127;SDS011;64873;50.102;14.434;2023-01-24T16:33:42;31.88;;;15.40;;
76127;SDS011;64873;50.102;14.434;2023-01-24T16:36:11;29.75;;;13.07;;
76127;SDS011;64873;50.102;14.434;2023-01-24T16:38:38;38.08;;;17.65;;
76127;SDS011;64873;50.102;14.434;2023-01-24T16:41:05;37.95;;;17.02;;
76127;SDS011;64873;50.102;14.434;2023-01-24T16:43:30;29.55;;;13.75;;
76127;SDS011;64873;50.102;14.434;2023-01-24T16:45:56;34.13;;;16.20;;
76127;SDS011;64873;50.102;14.434;2023-01-24T16:48:21;40.25;;;17.70;;
76127;SDS011;64873;50.102;14.434;2023-01-24T16:50:47;36.10;;;15.35;;
76127;SDS011;64873;50.102;14.434;2023-01-24T16:53:13;34.72;;;15.43;;
76127;SDS011;64873;50.102;14.434;2023-01-24T16:55:39;36.58;;;17.27;;
76127;SDS011;64873;50.102;14.434;2023-01-24T16:58:06;34.72;;;15.43;;
76127;SDS011;64873;50.102;14.434;2023-01-24T17:00:32;40.50;;;19.02;;
76127;SDS011;64873;50.102;14.434;2023-01-24T17:02:58;39.30;;;17.10;;
76127;SDS011;64873;50.102;14.434;2023-01-24T17:05:24;36.78;;;15.68;;
76127;SDS011;64873;50.102;14.434;2023-01-24T17:07:52;39.55;;;18.05;;
76127;SDS011;64873;50.102;14.434;2023-01-24T17:10:17;39.13;;;17.52;;